• Join FlightAware (Why Join?)
  • Login
  • US Flag 
11:39AM EDT


 

Airport Tracker/Info


-or-


 

Live Flight TrackerFlight Track Log ✈ N180KT ✈ 09-Jul-2013 ✈ KGMU - KRYY

Flight Track Log - Related Links

Times and Time Zones

All times are in EDT time to prevent confusion due to time zone crossing. See the N180KT flight status page for this flight to view local times or setup timezone preferences in your user account.

Time Position Orientation Groundspeed Altitude Reporting Facility
EDT Latitude Longitude Course Direction KTS MPH feet Rate Location/Type
04:13PM 34.8031 -82.4906 274° West 148 170 4,100  Level Atlanta Center
04:14PM 34.8056 -82.5386 274° West 142 163 4,800 660 Climbing Atlanta Center
04:15PM 34.8083 -82.5817 275° West 142 163 5,500 600 Climbing Atlanta Center
04:16PM 34.8067 -82.6272 260° West 142 163 6,000 240 Climbing Atlanta Center
04:17PM 34.7822 -82.6731 237° Southwest 142 163 6,000  Level Atlanta Center
04:18PM 34.7575 -82.7164 235° Southwest 154 177 6,000  Level Atlanta Center
04:19PM 34.7350 -82.7547 234° Southwest 160 184 6,000  Level Atlanta Center
04:20PM 34.7144 -82.7906 235° Southwest 150 173 6,000  Level Atlanta Center
04:21PM 34.6919 -82.8311 236° Southwest 145 167 6,000  Level Atlanta Center
04:22PM 34.6694 -82.8719 236° Southwest 145 167 6,000  Level Atlanta Center
04:23PM 34.6469 -82.9153 238° Southwest 150 173 6,000  Level Atlanta Center
04:24PM 34.6369 -82.9583 254° West 143 165 6,000  Level Atlanta Center
04:25PM 34.6247 -83.0039 252° West 138 159 6,000  Level Atlanta Center
04:26PM 34.5958 -83.0394 225° Southwest 143 165 6,000  Level Atlanta Center
04:27PM 34.5647 -83.0625 211° Southwest 138 159 6,000  Level Atlanta Center
04:28PM 34.5400 -83.1058 235° Southwest 144 166 6,000  Level Atlanta Center
04:29PM 34.5172 -83.1439 234° Southwest 144 166 6,000  Level Atlanta Center
04:30PM 34.5008 -83.1742 237° Southwest 132 152 6,000  Level Atlanta Center
04:31PM 34.4761 -83.2122 232° Southwest 132 152 6,000  Level Atlanta Center
04:32PM 34.4553 -83.2503 236° Southwest 132 152 6,000  Level Atlanta Center
04:33PM 34.4328 -83.2908 236° Southwest 138 159 6,000  Level Atlanta Center
04:34PM 34.4119 -83.3286 236° Southwest 144 166 6,000  Level Atlanta Center
04:35PM 34.3936 -83.3717 243° Southwest 144 166 6,000  Level Atlanta Center
04:36PM 34.3853 -83.4144 257° West 139 160 6,000  Level Atlanta Center
04:37PM 34.3689 -83.4575 245° Southwest 139 160 6,000  Level Atlanta Center
04:38PM 34.3567 -83.5028 252° West 139 160 6,000  Level Atlanta Center
04:39PM 34.3442 -83.5406 248° West 139 160 6,000  Level Atlanta Center
04:40PM 34.3319 -83.5886 253° West 139 160 6,000  Level Atlanta Center
04:41PM 34.3175 -83.6314 248° West 144 166 6,000  Level Atlanta Center
04:42PM 34.3050 -83.6742 251° West 144 166 6,000  Level Atlanta Center
04:44PM 34.2833 -83.7667 254° West 141 162 6,000  Level Atlanta TRACON
04:45PM 34.2667 -83.8000 239° Southwest 135 155 6,000  Level Atlanta TRACON
04:46PM 34.2500 -83.8500 248° West 136 157 6,100  Climbing Atlanta TRACON
04:47PM 34.2333 -83.9000 248° West 143 165 6,000 -60 Descending Atlanta TRACON
04:48PM 34.2167 -83.9500 248° West 147 169 6,000  Level Atlanta TRACON
04:49PM 34.2167 -83.9833 270° West 148 170 6,000  Level Atlanta TRACON
04:50PM 34.2000 -84.0333 248° West 143 165 6,000 -60 Level Atlanta TRACON
04:51PM 34.1833 -84.0667 239° Southwest 154 177 5,900 -360 Descending Atlanta TRACON
04:52PM 34.1667 -84.1333 253° West 151 174 5,300 -540 Descending Atlanta TRACON
04:53PM 34.1500 -84.1667 239° Southwest 144 166 4,800 -480 Descending Atlanta TRACON
04:54PM 34.1333 -84.2167 248° West 144 166 4,300 -420 Descending Atlanta TRACON
04:55PM 34.1167 -84.2667 248° West 146 168 4,000 -180 Descending Atlanta TRACON
04:56PM 34.1167 -84.3000 270° West 126 145 4,000 -120 Level Atlanta TRACON
04:57PM 34.1000 -84.3500 248° West 128 147 3,800 -360 Descending Atlanta TRACON
04:58PM 34.0833 -84.3833 239° Southwest 144 166 3,300 -360 Descending Atlanta TRACON
04:59PM 34.0667 -84.4333 248° West 136 157 3,200 -360 Descending Atlanta TRACON
05:00PM 34.0500 -84.4667 239° Southwest 139 160 2,700 -600 Descending Atlanta TRACON
05:01PM 34.0167 -84.5000 220° Southwest 119 137 2,000 -360 Descending Atlanta TRACON
05:02PM 34.0167 -84.5333 270° West 106 122 2,000  Level Atlanta TRACON
05:04PM 34.0000 -84.5833 244° Southwest  Level FlightAware Approximate
05:11PM 34.0132 -84.5971 244° Southwest  Level Estimated
05:12PM 34.0132 -84.5971 244° Southwest  Level Estimated